Aviation Digital Data Service (ADDS)

Output produced by METARs form (2205 UTC 23 April 2014)
found at http://aviationweather.gov/adds/metars/
 
KDFW 232043Z 2321/2424 18015KT P6SM SCT040 
     FM240900 18016KT P6SM VCTS SCT015 BKN040CB 
     FM241200 19017KT P6SM OVC015 
     FM241600 26011KT P6SM BKN035 
     FM241800 32013KT P6SM SCT035 BKN250